sensor_id;sensor_type;location;lat;lon;timestamp;P1;durP1;ratioP1;P2;durP2;ratioP2
13439;SDS011;6792;57.698;11.946;2022-08-30T00:02:18;3.87;;;1.10;;
13439;SDS011;6792;57.698;11.946;2022-08-30T00:04:47;2.72;;;0.70;;
13439;SDS011;6792;57.698;11.946;2022-08-30T00:07:16;2.10;;;0.62;;
13439;SDS011;6792;57.698;11.946;2022-08-30T00:09:45;1.42;;;0.93;;
13439;SDS011;6792;57.698;11.946;2022-08-30T00:12:14;2.05;;;0.90;;
13439;SDS011;6792;57.698;11.946;2022-08-30T00:14:43;1.90;;;1.15;;
13439;SDS011;6792;57.698;11.946;2022-08-30T00:17:12;1.40;;;1.00;;
13439;SDS011;6792;57.698;11.946;2022-08-30T00:19:41;2.12;;;0.95;;
13439;SDS011;6792;57.698;11.946;2022-08-30T00:22:10;2.47;;;0.90;;
13439;SDS011;6792;57.698;11.946;2022-08-30T00:24:39;2.30;;;1.10;;
13439;SDS011;6792;57.698;11.946;2022-08-30T00:27:08;1.27;;;1.02;;
13439;SDS011;6792;57.698;11.946;2022-08-30T00:29:37;2.70;;;0.80;;
13439;SDS011;6792;57.698;11.946;2022-08-30T00:32:06;2.22;;;1.00;;
13439;SDS011;6792;57.698;11.946;2022-08-30T00:34:35;2.35;;;1.35;;
13439;SDS011;6792;57.698;11.946;2022-08-30T00:37:07;1.57;;;0.88;;
13439;SDS011;6792;57.698;11.946;2022-08-30T00:39:36;2.22;;;1.10;;
13439;SDS011;6792;57.698;11.946;2022-08-30T00:42:05;2.45;;;1.10;;
13439;SDS011;6792;57.698;11.946;2022-08-30T00:44:34;1.77;;;1.07;;
13439;SDS011;6792;57.698;11.946;2022-08-30T00:47:04;1.37;;;0.90;;
13439;SDS011;6792;57.698;11.946;2022-08-30T00:49:33;2.60;;;1.12;;
13439;SDS011;6792;57.698;11.946;2022-08-30T00:52:04;1.62;;;1.10;;
13439;SDS011;6792;57.698;11.946;2022-08-30T00:54:34;1.25;;;0.90;;
13439;SDS011;6792;57.698;11.946;2022-08-30T00:57:06;1.30;;;0.90;;
13439;SDS011;6792;57.698;11.946;2022-08-30T00:59:36;1.50;;;0.90;;
13439;SDS011;6792;57.698;11.946;2022-08-30T01:02:06;1.32;;;0.95;;
13439;SDS011;6792;57.698;11.946;2022-08-30T01:04:35;2.47;;;0.95;;
13439;SDS011;6792;57.698;11.946;2022-08-30T01:07:06;0.95;;;0.88;;
13439;SDS011;6792;57.698;11.946;2022-08-30T01:09:35;1.67;;;1.15;;
13439;SDS011;6792;57.698;11.946;2022-08-30T01:12:05;1.40;;;0.93;;
13439;SDS011;6792;57.698;11.946;2022-08-30T01:14:34;5.60;;;1.27;;
13439;SDS011;6792;57.698;11.946;2022-08-30T01:17:04;1.77;;;1.00;;
13439;SDS011;6792;57.698;11.946;2022-08-30T01:19:37;3.72;;;0.98;;
13439;SDS011;6792;57.698;11.946;2022-08-30T01:22:09;2.25;;;1.10;;
13439;SDS011;6792;57.698;11.946;2022-08-30T01:24:40;2.35;;;1.10;;
13439;SDS011;6792;57.698;11.946;2022-08-30T01:27:13;2.25;;;1.32;;
13439;SDS011;6792;57.698;11.946;2022-08-30T01:29:42;1.12;;;0.90;;
13439;SDS011;6792;57.698;11.946;2022-08-30T01:32:15;2.05;;;0.80;;
13439;SDS011;6792;57.698;11.946;2022-08-30T01:34:45;2.60;;;1.37;;
13439;SDS011;6792;57.698;11.946;2022-08-30T01:37:15;1.10;;;1.00;;
13439;SDS011;6792;57.698;11.946;2022-08-30T01:39:46;4.05;;;1.30;;
13439;SDS011;6792;57.698;11.946;2022-08-30T01:42:15;3.47;;;1.20;;
13439;SDS011;6792;57.698;11.946;2022-08-30T01:44:44;1.10;;;0.95;;
13439;SDS011;6792;57.698;11.946;2022-08-30T01:47:15;4.08;;;1.00;;
13439;SDS011;6792;57.698;11.946;2022-08-30T01:49:44;1.80;;;1.10;;
13439;SDS011;6792;57.698;11.946;2022-08-30T01:52:15;0.90;;;0.80;;
13439;SDS011;6792;57.698;11.946;2022-08-30T01:54:44;4.45;;;1.22;;
13439;SDS011;6792;57.698;11.946;2022-08-30T01:57:15;2.40;;;0.90;;
13439;SDS011;6792;57.698;11.946;2022-08-30T01:59:46;1.17;;;0.88;;
13439;SDS011;6792;57.698;11.946;2022-08-30T02:02:16;2.40;;;0.88;;
13439;SDS011;6792;57.698;11.946;2022-08-30T02:04:47;2.40;;;0.90;;
13439;SDS011;6792;57.698;11.946;2022-08-30T02:07:17;2.22;;;1.10;;
13439;SDS011;6792;57.698;11.946;2022-08-30T02:09:46;3.02;;;0.80;;
13439;SDS011;6792;57.698;11.946;2022-08-30T02:12:15;1.05;;;0.80;;
13439;SDS011;6792;57.698;11.946;2022-08-30T02:14:43;1.12;;;0.80;;
13439;SDS011;6792;57.698;11.946;2022-08-30T02:17:13;0.93;;;0.75;;
13439;SDS011;6792;57.698;11.946;2022-08-30T02:19:42;3.72;;;1.07;;
13439;SDS011;6792;57.698;11.946;2022-08-30T02:22:11;0.80;;;0.80;;
13439;SDS011;6792;57.698;11.946;2022-08-30T02:24:41;1.20;;;0.80;;
13439;SDS011;6792;57.698;11.946;2022-08-30T02:27:10;1.20;;;0.70;;
13439;SDS011;6792;57.698;11.946;2022-08-30T02:29:39;1.95;;;0.70;;
13439;SDS011;6792;57.698;11.946;2022-08-30T02:32:08;0.85;;;0.72;;
13439;SDS011;6792;57.698;11.946;2022-08-30T02:34:37;1.92;;;0.70;;
13439;SDS011;6792;57.698;11.946;2022-08-30T02:37:06;1.95;;;0.70;;
13439;SDS011;6792;57.698;11.946;2022-08-30T02:39:35;1.40;;;0.60;;
13439;SDS011;6792;57.698;11.946;2022-08-30T02:42:04;1.00;;;0.90;;
13439;SDS011;6792;57.698;11.946;2022-08-30T02:44:33;1.47;;;0.65;;
13439;SDS011;6792;57.698;11.946;2022-08-30T02:47:02;0.80;;;0.80;;
13439;SDS011;6792;57.698;11.946;2022-08-30T02:49:31;0.87;;;0.77;;
13439;SDS011;6792;57.698;11.946;2022-08-30T02:52:02;2.12;;;0.75;;
13439;SDS011;6792;57.698;11.946;2022-08-30T02:54:31;1.50;;;1.02;;
13439;SDS011;6792;57.698;11.946;2022-08-30T02:57:00;1.10;;;0.80;;
13439;SDS011;6792;57.698;11.946;2022-08-30T02:59:31;0.82;;;0.70;;
13439;SDS011;6792;57.698;11.946;2022-08-30T03:02:02;1.82;;;0.80;;
13439;SDS011;6792;57.698;11.946;2022-08-30T03:04:32;3.85;;;0.90;;
13439;SDS011;6792;57.698;11.946;2022-08-30T03:07:01;1.65;;;1.10;;
13439;SDS011;6792;57.698;11.946;2022-08-30T03:09:30;3.10;;;0.62;;
13439;SDS011;6792;57.698;11.946;2022-08-30T03:11:59;1.77;;;1.00;;
13439;SDS011;6792;57.698;11.946;2022-08-30T03:14:28;2.05;;;1.02;;
13439;SDS011;6792;57.698;11.946;2022-08-30T03:16:59;1.72;;;0.98;;
13439;SDS011;6792;57.698;11.946;2022-08-30T03:19:28;1.25;;;0.90;;
13439;SDS011;6792;57.698;11.946;2022-08-30T03:21:57;3.33;;;0.93;;
13439;SDS011;6792;57.698;11.946;2022-08-30T03:24:26;1.07;;;0.88;;
13439;SDS011;6792;57.698;11.946;2022-08-30T03:26:55;3.08;;;0.80;;
13439;SDS011;6792;57.698;11.946;2022-08-30T03:29:24;1.70;;;0.80;;
13439;SDS011;6792;57.698;11.946;2022-08-30T03:31:55;0.75;;;0.70;;
13439;SDS011;6792;57.698;11.946;2022-08-30T03:34:24;1.17;;;0.80;;
13439;SDS011;6792;57.698;11.946;2022-08-30T03:36:54;0.72;;;0.62;;
13439;SDS011;6792;57.698;11.946;2022-08-30T03:39:23;1.67;;;0.90;;
13439;SDS011;6792;57.698;11.946;2022-08-30T03:41:52;2.52;;;0.90;;
13439;SDS011;6792;57.698;11.946;2022-08-30T03:44:21;3.85;;;1.00;;
13439;SDS011;6792;57.698;11.946;2022-08-30T03:46:50;2.52;;;0.80;;
13439;SDS011;6792;57.698;11.946;2022-08-30T03:49:19;4.10;;;0.65;;
13439;SDS011;6792;57.698;11.946;2022-08-30T03:51:49;1.92;;;0.90;;
13439;SDS011;6792;57.698;11.946;2022-08-30T03:54:18;1.52;;;0.90;;
13439;SDS011;6792;57.698;11.946;2022-08-30T03:56:48;1.62;;;0.80;;
13439;SDS011;6792;57.698;11.946;2022-08-30T03:59:17;1.02;;;0.82;;
13439;SDS011;6792;57.698;11.946;2022-08-30T04:01:46;1.82;;;0.95;;
13439;SDS011;6792;57.698;11.946;2022-08-30T04:04:15;1.35;;;0.80;;
13439;SDS011;6792;57.698;11.946;2022-08-30T04:06:44;4.80;;;1.02;;
13439;SDS011;6792;57.698;11.946;2022-08-30T04:09:13;2.02;;;0.90;;
13439;SDS011;6792;57.698;11.946;2022-08-30T04:11:42;1.47;;;0.95;;
13439;SDS011;6792;57.698;11.946;2022-08-30T04:14:10;1.98;;;0.93;;
13439;SDS011;6792;57.698;11.946;2022-08-30T04:16:39;0.80;;;0.78;;
13439;SDS011;6792;57.698;11.946;2022-08-30T04:19:08;1.85;;;1.10;;
13439;SDS011;6792;57.698;11.946;2022-08-30T04:21:37;3.12;;;1.07;;
13439;SDS011;6792;57.698;11.946;2022-08-30T04:24:15;1.55;;;1.05;;
13439;SDS011;6792;57.698;11.946;2022-08-30T04:26:49;4.72;;;1.25;;
13439;SDS011;6792;57.698;11.946;2022-08-30T04:29:18;5.60;;;1.00;;
13439;SDS011;6792;57.698;11.946;2022-08-30T04:31:47;9.48;;;1.20;;
13439;SDS011;6792;57.698;11.946;2022-08-30T04:34:16;3.33;;;0.98;;
13439;SDS011;6792;57.698;11.946;2022-08-30T04:36:46;2.83;;;0.90;;
13439;SDS011;6792;57.698;11.946;2022-08-30T04:39:15;5.50;;;1.22;;
13439;SDS011;6792;57.698;11.946;2022-08-30T04:41:45;1.02;;;0.93;;
13439;SDS011;6792;57.698;11.946;2022-08-30T04:44:14;4.62;;;1.07;;
13439;SDS011;6792;57.698;11.946;2022-08-30T04:46:43;2.45;;;0.88;;
13439;SDS011;6792;57.698;11.946;2022-08-30T04:49:12;4.62;;;1.20;;
13439;SDS011;6792;57.698;11.946;2022-08-30T04:51:41;6.10;;;1.17;;
13439;SDS011;6792;57.698;11.946;2022-08-30T04:54:10;5.47;;;1.30;;
13439;SDS011;6792;57.698;11.946;2022-08-30T04:56:39;4.03;;;1.17;;
13439;SDS011;6792;57.698;11.946;2022-08-30T04:59:09;4.20;;;1.20;;
13439;SDS011;6792;57.698;11.946;2022-08-30T05:01:38;3.62;;;1.50;;
13439;SDS011;6792;57.698;11.946;2022-08-30T05:04:07;3.00;;;1.20;;
13439;SDS011;6792;57.698;11.946;2022-08-30T05:06:36;3.55;;;1.12;;
13439;SDS011;6792;57.698;11.946;2022-08-30T05:09:05;3.45;;;1.17;;
13439;SDS011;6792;57.698;11.946;2022-08-30T05:11:34;3.12;;;1.00;;
13439;SDS011;6792;57.698;11.946;2022-08-30T05:14:04;5.60;;;1.70;;
13439;SDS011;6792;57.698;11.946;2022-08-30T05:16:32;7.95;;;1.70;;
13439;SDS011;6792;57.698;11.946;2022-08-30T05:19:01;3.02;;;1.30;;
13439;SDS011;6792;57.698;11.946;2022-08-30T05:21:30;3.58;;;1.37;;
13439;SDS011;6792;57.698;11.946;2022-08-30T05:23:59;3.72;;;1.45;;
13439;SDS011;6792;57.698;11.946;2022-08-30T05:26:29;5.05;;;1.42;;
13439;SDS011;6792;57.698;11.946;2022-08-30T05:29:00;5.97;;;1.50;;
13439;SDS011;6792;57.698;11.946;2022-08-30T05:31:31;2.95;;;1.57;;
13439;SDS011;6792;57.698;11.946;2022-08-30T05:34:00;4.30;;;1.45;;
13439;SDS011;6792;57.698;11.946;2022-08-30T05:36:30;4.95;;;1.37;;
13439;SDS011;6792;57.698;11.946;2022-08-30T05:39:02;9.48;;;1.60;;
13439;SDS011;6792;57.698;11.946;2022-08-30T05:41:31;6.50;;;1.40;;
13439;SDS011;6792;57.698;11.946;2022-08-30T05:44:01;4.42;;;1.35;;
13439;SDS011;6792;57.698;11.946;2022-08-30T05:46:31;5.28;;;1.40;;
13439;SDS011;6792;57.698;11.946;2022-08-30T05:49:01;1.90;;;1.12;;
13439;SDS011;6792;57.698;11.946;2022-08-30T05:51:31;7.85;;;1.42;;
13439;SDS011;6792;57.698;11.946;2022-08-30T05:54:02;3.55;;;1.52;;
13439;SDS011;6792;57.698;11.946;2022-08-30T05:56:33;7.33;;;1.73;;
13439;SDS011;6792;57.698;11.946;2022-08-30T05:59:05;3.62;;;1.35;;
13439;SDS011;6792;57.698;11.946;2022-08-30T06:01:35;7.72;;;1.95;;
13439;SDS011;6792;57.698;11.946;2022-08-30T06:04:06;2.05;;;1.40;;
13439;SDS011;6792;57.698;11.946;2022-08-30T06:06:38;3.22;;;1.57;;
13439;SDS011;6792;57.698;11.946;2022-08-30T06:09:09;3.87;;;1.60;;
13439;SDS011;6792;57.698;11.946;2022-08-30T06:11:39;4.70;;;1.80;;
13439;SDS011;6792;57.698;11.946;2022-08-30T06:14:08;7.30;;;1.98;;
13439;SDS011;6792;57.698;11.946;2022-08-30T06:16:38;8.68;;;1.70;;
13439;SDS011;6792;57.698;11.946;2022-08-30T06:19:09;3.60;;;1.87;;
13439;SDS011;6792;57.698;11.946;2022-08-30T06:21:38;14.40;;;1.85;;
13439;SDS011;6792;57.698;11.946;2022-08-30T06:24:09;5.75;;;1.50;;
13439;SDS011;6792;57.698;11.946;2022-08-30T06:26:40;4.17;;;1.82;;
13439;SDS011;6792;57.698;11.946;2022-08-30T06:29:19;8.53;;;1.90;;
13439;SDS011;6792;57.698;11.946;2022-08-30T06:31:49;4.40;;;1.70;;
13439;SDS011;6792;57.698;11.946;2022-08-30T06:34:18;4.58;;;1.90;;
13439;SDS011;6792;57.698;11.946;2022-08-30T06:36:46;5.83;;;1.92;;
13439;SDS011;6792;57.698;11.946;2022-08-30T06:39:15;2.92;;;1.77;;
13439;SDS011;6792;57.698;11.946;2022-08-30T06:41:44;4.67;;;1.95;;
13439;SDS011;6792;57.698;11.946;2022-08-30T06:44:13;10.63;;;1.92;;
13439;SDS011;6792;57.698;11.946;2022-08-30T06:46:42;5.35;;;1.80;;
13439;SDS011;6792;57.698;11.946;2022-08-30T06:49:11;3.98;;;1.90;;
13439;SDS011;6792;57.698;11.946;2022-08-30T06:51:41;6.15;;;1.92;;
13439;SDS011;6792;57.698;11.946;2022-08-30T06:54:10;3.77;;;1.60;;
13439;SDS011;6792;57.698;11.946;2022-08-30T06:56:39;7.30;;;1.60;;
13439;SDS011;6792;57.698;11.946;2022-08-30T06:59:08;4.12;;;1.32;;
13439;SDS011;6792;57.698;11.946;2022-08-30T07:01:37;4.80;;;1.00;;
13439;SDS011;6792;57.698;11.946;2022-08-30T07:04:07;3.22;;;1.20;;
13439;SDS011;6792;57.698;11.946;2022-08-30T07:06:36;5.03;;;1.10;;
13439;SDS011;6792;57.698;11.946;2022-08-30T07:09:06;4.03;;;1.30;;
13439;SDS011;6792;57.698;11.946;2022-08-30T07:11:36;3.60;;;1.52;;
13439;SDS011;6792;57.698;11.946;2022-08-30T07:14:06;3.87;;;1.50;;
13439;SDS011;6792;57.698;11.946;2022-08-30T07:16:35;8.05;;;1.35;;
13439;SDS011;6792;57.698;11.946;2022-08-30T07:19:04;3.02;;;1.00;;
13439;SDS011;6792;57.698;11.946;2022-08-30T07:21:34;2.33;;;0.90;;
13439;SDS011;6792;57.698;11.946;2022-08-30T07:24:06;2.47;;;1.00;;
13439;SDS011;6792;57.698;11.946;2022-08-30T07:26:37;4.12;;;0.82;;
13439;SDS011;6792;57.698;11.946;2022-08-30T07:29:07;5.08;;;0.82;;
13439;SDS011;6792;57.698;11.946;2022-08-30T07:31:37;0.78;;;0.60;;
13439;SDS011;6792;57.698;11.946;2022-08-30T07:34:07;1.52;;;0.68;;
13439;SDS011;6792;57.698;11.946;2022-08-30T07:36:36;1.57;;;0.60;;
13439;SDS011;6792;57.698;11.946;2022-08-30T07:39:06;1.35;;;1.02;;
13439;SDS011;6792;57.698;11.946;2022-08-30T07:41:35;3.10;;;0.40;;
13439;SDS011;6792;57.698;11.946;2022-08-30T07:44:05;2.25;;;0.80;;
13439;SDS011;6792;57.698;11.946;2022-08-30T07:46:35;0.62;;;0.60;;
13439;SDS011;6792;57.698;11.946;2022-08-30T07:49:05;1.45;;;0.50;;
13439;SDS011;6792;57.698;11.946;2022-08-30T07:51:35;4.15;;;0.70;;
13439;SDS011;6792;57.698;11.946;2022-08-30T07:54:05;0.45;;;0.45;;
13439;SDS011;6792;57.698;11.946;2022-08-30T07:56:34;1.77;;;0.62;;
13439;SDS011;6792;57.698;11.946;2022-08-30T07:59:03;0.60;;;0.60;;
13439;SDS011;6792;57.698;11.946;2022-08-30T08:01:32;1.85;;;0.40;;
13439;SDS011;6792;57.698;11.946;2022-08-30T08:04:02;1.27;;;0.50;;
13439;SDS011;6792;57.698;11.946;2022-08-30T08:06:30;2.70;;;0.68;;
13439;SDS011;6792;57.698;11.946;2022-08-30T08:09:01;0.68;;;0.50;;
13439;SDS011;6792;57.698;11.946;2022-08-30T08:11:31;2.45;;;0.62;;
13439;SDS011;6792;57.698;11.946;2022-08-30T08:14:01;2.08;;;0.65;;
13439;SDS011;6792;57.698;11.946;2022-08-30T08:16:31;1.90;;;0.47;;
13439;SDS011;6792;57.698;11.946;2022-08-30T08:19:01;0.80;;;0.40;;
13439;SDS011;6792;57.698;11.946;2022-08-30T08:21:32;0.20;;;0.20;;
13439;SDS011;6792;57.698;11.946;2022-08-30T08:24:02;0.65;;;0.30;;
13439;SDS011;6792;57.698;11.946;2022-08-30T08:26:33;2.52;;;0.50;;
13439;SDS011;6792;57.698;11.946;2022-08-30T08:29:02;0.60;;;0.45;;
13439;SDS011;6792;57.698;11.946;2022-08-30T08:31:33;3.37;;;0.68;;
13439;SDS011;6792;57.698;11.946;2022-08-30T08:34:03;0.65;;;0.33;;
13439;SDS011;6792;57.698;11.946;2022-08-30T08:36:32;2.58;;;0.57;;
13439;SDS011;6792;57.698;11.946;2022-08-30T08:39:02;2.00;;;0.50;;
13439;SDS011;6792;57.698;11.946;2022-08-30T08:41:38;1.62;;;0.50;;
13439;SDS011;6792;57.698;11.946;2022-08-30T08:44:11;0.82;;;0.45;;
13439;SDS011;6792;57.698;11.946;2022-08-30T08:46:46;2.08;;;0.40;;
13439;SDS011;6792;57.698;11.946;2022-08-30T08:49:16;0.68;;;0.50;;
13439;SDS011;6792;57.698;11.946;2022-08-30T08:51:45;1.52;;;0.40;;
13439;SDS011;6792;57.698;11.946;2022-08-30T08:54:33;1.95;;;0.53;;
13439;SDS011;6792;57.698;11.946;2022-08-30T08:57:04;1.62;;;0.65;;
13439;SDS011;6792;57.698;11.946;2022-08-30T08:59:33;1.37;;;0.60;;
13439;SDS011;6792;57.698;11.946;2022-08-30T09:02:15;0.33;;;0.33;;
13439;SDS011;6792;57.698;11.946;2022-08-30T09:04:35;1.32;;;0.50;;
13439;SDS011;6792;57.698;11.946;2022-08-30T09:07:07;0.70;;;0.40;;
13439;SDS011;6792;57.698;11.946;2022-08-30T09:09:38;3.42;;;0.50;;
13439;SDS011;6792;57.698;11.946;2022-08-30T09:12:10;1.77;;;0.55;;
13439;SDS011;6792;57.698;11.946;2022-08-30T09:14:40;0.35;;;0.30;;
13439;SDS011;6792;57.698;11.946;2022-08-30T09:17:12;1.80;;;0.35;;
13439;SDS011;6792;57.698;11.946;2022-08-30T09:19:44;0.47;;;0.30;;
13439;SDS011;6792;57.698;11.946;2022-08-30T09:22:18;0.65;;;0.20;;
13439;SDS011;6792;57.698;11.946;2022-08-30T09:24:52;0.42;;;0.33;;
13439;SDS011;6792;57.698;11.946;2022-08-30T09:27:24;0.93;;;0.40;;
13439;SDS011;6792;57.698;11.946;2022-08-30T09:29:57;0.35;;;0.20;;
13439;SDS011;6792;57.698;11.946;2022-08-30T09:32:29;0.37;;;0.28;;
13439;SDS011;6792;57.698;11.946;2022-08-30T09:35:01;2.05;;;0.30;;
13439;SDS011;6792;57.698;11.946;2022-08-30T09:37:37;2.30;;;0.40;;
13439;SDS011;6792;57.698;11.946;2022-08-30T09:40:14;5.37;;;0.47;;
13439;SDS011;6792;57.698;11.946;2022-08-30T09:42:58;2.72;;;0.50;;
13439;SDS011;6792;57.698;11.946;2022-08-30T09:45:31;0.53;;;0.28;;
13439;SDS011;6792;57.698;11.946;2022-08-30T09:48:19;0.20;;;0.20;;
13439;SDS011;6792;57.698;11.946;2022-08-30T09:50:54;2.65;;;0.30;;
13439;SDS011;6792;57.698;11.946;2022-08-30T09:53:26;0.28;;;0.20;;
13439;SDS011;6792;57.698;11.946;2022-08-30T09:56:01;2.45;;;0.50;;
13439;SDS011;6792;57.698;11.946;2022-08-30T09:58:36;0.47;;;0.30;;
13439;SDS011;6792;57.698;11.946;2022-08-30T10:01:11;2.40;;;0.40;;
13439;SDS011;6792;57.698;11.946;2022-08-30T10:03:43;0.20;;;0.20;;
13439;SDS011;6792;57.698;11.946;2022-08-30T10:06:20;2.62;;;0.40;;
13439;SDS011;6792;57.698;11.946;2022-08-30T10:08:55;3.65;;;0.40;;
13439;SDS011;6792;57.698;11.946;2022-08-30T10:11:34;7.95;;;0.60;;
13439;SDS011;6792;57.698;11.946;2022-08-30T10:14:23;12.63;;;0.80;;
13439;SDS011;6792;57.698;11.946;2022-08-30T10:17:19;0.90;;;0.30;;
13439;SDS011;6792;57.698;11.946;2022-08-30T10:19:56;1.90;;;0.42;;
13439;SDS011;6792;57.698;11.946;2022-08-30T10:22:33;0.85;;;0.57;;
13439;SDS011;6792;57.698;11.946;2022-08-30T10:25:06;1.07;;;0.50;;
13439;SDS011;6792;57.698;11.946;2022-08-30T10:27:38;0.68;;;0.40;;
13439;SDS011;6792;57.698;11.946;2022-08-30T10:30:11;3.50;;;0.50;;
13439;SDS011;6792;57.698;11.946;2022-08-30T10:32:44;5.90;;;0.70;;
13439;SDS011;6792;57.698;11.946;2022-08-30T10:35:17;2.27;;;0.50;;
13439;SDS011;6792;57.698;11.946;2022-08-30T10:37:49;2.27;;;0.42;;
13439;SDS011;6792;57.698;11.946;2022-08-30T10:40:24;0.20;;;0.20;;
13439;SDS011;6792;57.698;11.946;2022-08-30T10:43:19;1.55;;;0.28;;
13439;SDS011;6792;57.698;11.946;2022-08-30T10:45:52;1.72;;;0.30;;
13439;SDS011;6792;57.698;11.946;2022-08-30T10:48:25;2.95;;;0.30;;
13439;SDS011;6792;57.698;11.946;2022-08-30T10:50:57;2.50;;;0.47;;
13439;SDS011;6792;57.698;11.946;2022-08-30T10:53:30;0.70;;;0.30;;
13439;SDS011;6792;57.698;11.946;2022-08-30T10:56:03;5.40;;;0.40;;
13439;SDS011;6792;57.698;11.946;2022-08-30T10:58:33;0.85;;;0.30;;
13439;SDS011;6792;57.698;11.946;2022-08-30T11:01:10;0.72;;;0.30;;
13439;SDS011;6792;57.698;11.946;2022-08-30T11:04:04;0.20;;;0.20;;
13439;SDS011;6792;57.698;11.946;2022-08-30T11:06:59;0.50;;;0.15;;
13439;SDS011;6792;57.698;11.946;2022-08-30T11:09:36;0.10;;;0.10;;
13439;SDS011;6792;57.698;11.946;2022-08-30T11:12:15;1.57;;;0.20;;
13439;SDS011;6792;57.698;11.946;2022-08-30T11:14:53;2.15;;;0.30;;
13439;SDS011;6792;57.698;11.946;2022-08-30T11:17:23;1.00;;;0.28;;
13439;SDS011;6792;57.698;11.946;2022-08-30T11:19:56;1.07;;;0.40;;
13439;SDS011;6792;57.698;11.946;2022-08-30T11:22:27;0.30;;;0.30;;
13439;SDS011;6792;57.698;11.946;2022-08-30T11:25:03;1.20;;;0.33;;
13439;SDS011;6792;57.698;11.946;2022-08-30T11:27:44;0.45;;;0.35;;
13439;SDS011;6792;57.698;11.946;2022-08-30T11:33:30;3.75;;;0.30;;
13439;SDS011;6792;57.698;11.946;2022-08-30T11:36:10;0.93;;;0.30;;
13439;SDS011;6792;57.698;11.946;2022-08-30T11:38:58;0.82;;;0.20;;
13439;SDS011;6792;57.698;11.946;2022-08-30T11:41:31;0.28;;;0.20;;
13439;SDS011;6792;57.698;11.946;2022-08-30T11:44:12;0.65;;;0.20;;
13439;SDS011;6792;57.698;11.946;2022-08-30T11:46:54;1.35;;;0.40;;
13439;SDS011;6792;57.698;11.946;2022-08-30T11:49:38;0.95;;;0.20;;
13439;SDS011;6792;57.698;11.946;2022-08-30T11:52:14;3.75;;;0.33;;
13439;SDS011;6792;57.698;11.946;2022-08-30T11:58:12;0.53;;;0.13;;
13439;SDS011;6792;57.698;11.946;2022-08-30T12:00:44;0.20;;;0.20;;
13439;SDS011;6792;57.698;11.946;2022-08-30T12:03:27;1.27;;;0.20;;
13439;SDS011;6792;57.698;11.946;2022-08-30T12:05:59;0.88;;;0.33;;
13439;SDS011;6792;57.698;11.946;2022-08-30T12:08:46;0.68;;;0.20;;
13439;SDS011;6792;57.698;11.946;2022-08-30T12:17:25;1.95;;;0.40;;
13439;SDS011;6792;57.698;11.946;2022-08-30T12:20:21;1.95;;;0.40;;
13439;SDS011;6792;57.698;11.946;2022-08-30T12:22:53;0.30;;;0.20;;
13439;SDS011;6792;57.698;11.946;2022-08-30T12:25:25;0.40;;;0.40;;
13439;SDS011;6792;57.698;11.946;2022-08-30T12:28:11;1.85;;;0.60;;
13439;SDS011;6792;57.698;11.946;2022-08-30T12:30:42;1.50;;;0.40;;
13439;SDS011;6792;57.698;11.946;2022-08-30T12:33:12;3.62;;;0.40;;
13439;SDS011;6792;57.698;11.946;2022-08-30T12:35:43;3.27;;;0.35;;
13439;SDS011;6792;57.698;11.946;2022-08-30T12:38:17;0.40;;;0.30;;
13439;SDS011;6792;57.698;11.946;2022-08-30T12:40:51;0.80;;;0.30;;
13439;SDS011;6792;57.698;11.946;2022-08-30T12:43:25;0.40;;;0.40;;
13439;SDS011;6792;57.698;11.946;2022-08-30T12:45:57;1.32;;;0.30;;
13439;SDS011;6792;57.698;11.946;2022-08-30T12:48:28;2.80;;;0.60;;
13439;SDS011;6792;57.698;11.946;2022-08-30T12:51:02;1.05;;;0.40;;
13439;SDS011;6792;57.698;11.946;2022-08-30T12:53:34;1.05;;;0.33;;
13439;SDS011;6792;57.698;11.946;2022-08-30T12:56:07;0.78;;;0.20;;
13439;SDS011;6792;57.698;11.946;2022-08-30T12:58:40;1.60;;;0.25;;
13439;SDS011;6792;57.698;11.946;2022-08-30T13:01:10;1.45;;;0.50;;
13439;SDS011;6792;57.698;11.946;2022-08-30T13:03:57;1.72;;;0.30;;
13439;SDS011;6792;57.698;11.946;2022-08-30T13:06:39;0.30;;;0.30;;
13439;SDS011;6792;57.698;11.946;2022-08-30T13:09:16;3.20;;;0.37;;
13439;SDS011;6792;57.698;11.946;2022-08-30T13:11:53;0.80;;;0.20;;
13439;SDS011;6792;57.698;11.946;2022-08-30T13:14:31;0.30;;;0.30;;
13439;SDS011;6792;57.698;11.946;2022-08-30T13:17:07;0.42;;;0.42;;
13439;SDS011;6792;57.698;11.946;2022-08-30T13:19:41;2.27;;;0.30;;
13439;SDS011;6792;57.698;11.946;2022-08-30T13:22:29;1.22;;;0.42;;
13439;SDS011;6792;57.698;11.946;2022-08-30T13:25:00;1.75;;;0.30;;
13439;SDS011;6792;57.698;11.946;2022-08-30T13:27:29;0.75;;;0.30;;
13439;SDS011;6792;57.698;11.946;2022-08-30T13:30:06;1.70;;;0.33;;
13439;SDS011;6792;57.698;11.946;2022-08-30T13:32:37;0.55;;;0.25;;
13439;SDS011;6792;57.698;11.946;2022-08-30T13:35:07;0.33;;;0.30;;
13439;SDS011;6792;57.698;11.946;2022-08-30T13:37:39;0.20;;;0.20;;
13439;SDS011;6792;57.698;11.946;2022-08-30T13:40:09;0.47;;;0.30;;
13439;SDS011;6792;57.698;11.946;2022-08-30T13:42:40;1.52;;;0.42;;
13439;SDS011;6792;57.698;11.946;2022-08-30T13:45:10;0.65;;;0.65;;
13439;SDS011;6792;57.698;11.946;2022-08-30T13:47:42;1.90;;;0.37;;
13439;SDS011;6792;57.698;11.946;2022-08-30T13:50:12;2.50;;;0.33;;
13439;SDS011;6792;57.698;11.946;2022-08-30T13:52:41;2.25;;;0.30;;
13439;SDS011;6792;57.698;11.946;2022-08-30T13:55:10;1.30;;;0.45;;
13439;SDS011;6792;57.698;11.946;2022-08-30T13:57:39;1.22;;;0.50;;
13439;SDS011;6792;57.698;11.946;2022-08-30T14:00:10;2.58;;;0.42;;
13439;SDS011;6792;57.698;11.946;2022-08-30T14:02:44;1.45;;;0.47;;
13439;SDS011;6792;57.698;11.946;2022-08-30T14:05:13;0.57;;;0.30;;
13439;SDS011;6792;57.698;11.946;2022-08-30T14:07:42;1.55;;;0.40;;
13439;SDS011;6792;57.698;11.946;2022-08-30T14:10:11;1.95;;;0.50;;
13439;SDS011;6792;57.698;11.946;2022-08-30T14:12:43;1.17;;;0.40;;
13439;SDS011;6792;57.698;11.946;2022-08-30T14:15:12;0.40;;;0.40;;
13439;SDS011;6792;57.698;11.946;2022-08-30T14:17:41;0.40;;;0.30;;
13439;SDS011;6792;57.698;11.946;2022-08-30T14:20:10;1.10;;;1.00;;
13439;SDS011;6792;57.698;11.946;2022-08-30T14:22:39;0.55;;;0.50;;
13439;SDS011;6792;57.698;11.946;2022-08-30T14:25:08;0.93;;;0.50;;
13439;SDS011;6792;57.698;11.946;2022-08-30T14:27:38;0.55;;;0.40;;
13439;SDS011;6792;57.698;11.946;2022-08-30T14:30:10;0.37;;;0.37;;
13439;SDS011;6792;57.698;11.946;2022-08-30T14:32:39;0.75;;;0.40;;
13439;SDS011;6792;57.698;11.946;2022-08-30T14:35:08;0.80;;;0.47;;
13439;SDS011;6792;57.698;11.946;2022-08-30T14:37:37;2.25;;;0.50;;
13439;SDS011;6792;57.698;11.946;2022-08-30T14:40:07;0.78;;;0.40;;
13439;SDS011;6792;57.698;11.946;2022-08-30T14:42:37;2.80;;;0.85;;
13439;SDS011;6792;57.698;11.946;2022-08-30T14:45:07;1.57;;;0.42;;
13439;SDS011;6792;57.698;11.946;2022-08-30T14:47:37;0.40;;;0.40;;
13439;SDS011;6792;57.698;11.946;2022-08-30T14:50:07;2.15;;;0.68;;
13439;SDS011;6792;57.698;11.946;2022-08-30T14:52:36;2.47;;;0.33;;
13439;SDS011;6792;57.698;11.946;2022-08-30T14:55:07;3.50;;;0.45;;
13439;SDS011;6792;57.698;11.946;2022-08-30T14:57:37;0.60;;;0.50;;
13439;SDS011;6792;57.698;11.946;2022-08-30T15:00:08;0.35;;;0.35;;
13439;SDS011;6792;57.698;11.946;2022-08-30T15:02:38;0.70;;;0.42;;
13439;SDS011;6792;57.698;11.946;2022-08-30T15:05:08;0.42;;;0.42;;
13439;SDS011;6792;57.698;11.946;2022-08-30T15:07:37;0.37;;;0.30;;
13439;SDS011;6792;57.698;11.946;2022-08-30T15:10:07;0.50;;;0.50;;
13439;SDS011;6792;57.698;11.946;2022-08-30T15:12:38;0.33;;;0.30;;
13439;SDS011;6792;57.698;11.946;2022-08-30T15:15:08;0.42;;;0.33;;
13439;SDS011;6792;57.698;11.946;2022-08-30T15:17:38;2.22;;;0.45;;
13439;SDS011;6792;57.698;11.946;2022-08-30T15:20:08;0.47;;;0.40;;
13439;SDS011;6792;57.698;11.946;2022-08-30T15:22:38;0.82;;;0.25;;
13439;SDS011;6792;57.698;11.946;2022-08-30T15:25:08;0.68;;;0.47;;
13439;SDS011;6792;57.698;11.946;2022-08-30T15:27:37;0.40;;;0.40;;